CCA9637 ZSQD-ZSCN
Flight info
| Callsign | CCA9637 |
|---|---|
| Flight time | N/A |
| Altitude | 36100 |
| Route | LATUX W108 SOSMA W113 YCH W185 OF W543 MABOS W73 MADUK W51 LEGIV W164 VILID V65 IKUBA W50 XSH W105 LAPEN |
| Aircraft | B738/M-SDE3/L |
Departure
| Time | 2026-04-26 07:11 |
|---|---|
| Airport | Qingdao Jiaodong International Airport (ZSQD) |
Arrival
| Time | N/A |
|---|---|
| Airport | Nanchang Changbei International Airport (ZSCN) |
| Time | Latitude | Longitude | Altitude | Speed | Heading |
|---|---|---|---|---|---|
| 2026-04-26 07:03 | 36.36198 | 120.09403 | 35 ft | 0 kts | 98° |
| 2026-04-26 07:05 | 36.36198 | 120.09407 | 35 ft | 2 kts | 95° |
| 2026-04-26 07:06 | 36.36195 | 120.09446 | 35 ft | 7 kts | 95° |
| 2026-04-26 07:06 | 36.36186 | 120.09528 | 34 ft | 11 kts | 97° |
| 2026-04-26 07:06 | 36.36190 | 120.09618 | 34 ft | 10 kts | 81° |
| 2026-04-26 07:06 | 36.36207 | 120.09704 | 33 ft | 10 kts | 73° |
| 2026-04-26 07:07 | 36.36228 | 120.09786 | 34 ft | 10 kts | 70° |
| 2026-04-26 07:07 | 36.36288 | 120.09819 | 33 ft | 12 kts | 348° |
| 2026-04-26 07:07 | 36.36384 | 120.09781 | 34 ft | 17 kts | 342° |
| 2026-04-26 07:07 | 36.36517 | 120.09728 | 34 ft | 23 kts | 342° |
| 2026-04-26 07:08 | 36.36681 | 120.09660 | 34 ft | 27 kts | 343° |
| 2026-04-26 07:08 | 36.36869 | 120.09589 | 34 ft | 30 kts | 342° |
| 2026-04-26 07:08 | 36.37080 | 120.09504 | 33 ft | 33 kts | 342° |
| 2026-04-26 07:08 | 36.37308 | 120.09412 | 33 ft | 35 kts | 342° |
| 2026-04-26 07:09 | 36.37533 | 120.09327 | 34 ft | 32 kts | 342° |
| 2026-04-26 07:09 | 36.37738 | 120.09246 | 35 ft | 30 kts | 342° |
| 2026-04-26 07:09 | 36.37927 | 120.09171 | 33 ft | 28 kts | 342° |
| 2026-04-26 07:09 | 36.38033 | 120.09129 | 34 ft | 6 kts | 342° |
| 2026-04-26 07:10 | 36.38102 | 120.09298 | 36 ft | 15 kts | 112° |
| 2026-04-26 07:11 | 36.37847 | 120.09429 | 36 ft | 63 kts | 162° |
| 2026-04-26 07:11 | 36.37179 | 120.09691 | 36 ft | 135 kts | 162° |
| 2026-04-26 07:11 | 36.36130 | 120.10101 | 254 ft | 175 kts | 163° |
| 2026-04-26 07:11 | 36.34890 | 120.10583 | 841 ft | 198 kts | 162° |
| 2026-04-26 07:12 | 36.33628 | 120.11326 | 1698 ft | 201 kts | 147° |
| 2026-04-26 07:12 | 36.32430 | 120.12325 | 2261 ft | 216 kts | 146° |
| 2026-04-26 07:12 | 36.31139 | 120.13435 | 2460 ft | 234 kts | 146° |
| 2026-04-26 07:12 | 36.29733 | 120.14618 | 2702 ft | 254 kts | 147° |
| 2026-04-26 07:13 | 36.28765 | 120.15460 | 3018 ft | 260 kts | 140° |
| 2026-04-26 07:13 | 36.27513 | 120.17979 | 3852 ft | 265 kts | 102° |
| 2026-04-26 07:13 | 36.27509 | 120.20260 | 4504 ft | 267 kts | 77° |
| 2026-04-26 07:13 | 36.28045 | 120.22474 | 5145 ft | 269 kts | 71° |
| 2026-04-26 07:14 | 36.28641 | 120.24693 | 5773 ft | 273 kts | 71° |
| 2026-04-26 07:14 | 36.29034 | 120.26176 | 6205 ft | 274 kts | 72° |
| 2026-04-26 07:14 | 36.29818 | 120.29181 | 7085 ft | 277 kts | 72° |
| 2026-04-26 07:14 | 36.30207 | 120.30729 | 7515 ft | 279 kts | 76° |
| 2026-04-26 07:15 | 36.30093 | 120.33884 | 8366 ft | 283 kts | 112° |
| 2026-04-26 07:15 | 36.29421 | 120.35302 | 8809 ft | 284 kts | 131° |
| 2026-04-26 07:15 | 36.27835 | 120.36744 | 9474 ft | 286 kts | 157° |
| 2026-04-26 07:15 | 36.25981 | 120.37569 | 10127 ft | 288 kts | 162° |
| 2026-04-26 07:16 | 36.24008 | 120.38319 | 10431 ft | 307 kts | 163° |
| 2026-04-26 07:16 | 36.21891 | 120.39102 | 10602 ft | 328 kts | 163° |
| 2026-04-26 07:16 | 36.19639 | 120.39940 | 10763 ft | 348 kts | 163° |
| 2026-04-26 07:16 | 36.17260 | 120.40838 | 10975 ft | 364 kts | 163° |
| 2026-04-26 07:17 | 36.14813 | 120.41773 | 11481 ft | 371 kts | 163° |
| 2026-04-26 07:17 | 36.12340 | 120.42726 | 12104 ft | 373 kts | 163° |
| 2026-04-26 07:17 | 36.09853 | 120.43688 | 12745 ft | 376 kts | 163° |
| 2026-04-26 07:17 | 36.07345 | 120.44660 | 13361 ft | 379 kts | 163° |
| 2026-04-26 07:18 | 36.04843 | 120.45629 | 13981 ft | 382 kts | 163° |
| 2026-04-26 07:18 | 36.02292 | 120.46617 | 14597 ft | 386 kts | 163° |
| 2026-04-26 07:18 | 35.99717 | 120.47614 | 15211 ft | 389 kts | 163° |
| 2026-04-26 07:18 | 35.97115 | 120.48619 | 15825 ft | 392 kts | 163° |
| 2026-04-26 07:19 | 35.94517 | 120.49700 | 16409 ft | 396 kts | 159° |
| 2026-04-26 07:19 | 35.91970 | 120.51047 | 16972 ft | 400 kts | 155° |
| 2026-04-26 07:19 | 35.89467 | 120.52483 | 17528 ft | 403 kts | 155° |
| 2026-04-26 07:19 | 35.86914 | 120.53956 | 18072 ft | 406 kts | 155° |
| 2026-04-26 07:20 | 35.84329 | 120.55420 | 18601 ft | 409 kts | 156° |
| 2026-04-26 07:20 | 35.81720 | 120.56872 | 19120 ft | 413 kts | 156° |
| 2026-04-26 07:20 | 35.79083 | 120.58321 | 19624 ft | 416 kts | 156° |
| 2026-04-26 07:20 | 35.76426 | 120.59774 | 20115 ft | 419 kts | 156° |
| 2026-04-26 07:21 | 35.73785 | 120.61217 | 20587 ft | 422 kts | 156° |
| 2026-04-26 07:21 | 35.71134 | 120.62790 | 21043 ft | 425 kts | 152° |
| 2026-04-26 07:21 | 35.68531 | 120.64537 | 21491 ft | 428 kts | 151° |
| 2026-04-26 07:21 | 35.65930 | 120.66351 | 21927 ft | 430 kts | 150° |
| 2026-04-26 07:22 | 35.63316 | 120.68174 | 22350 ft | 433 kts | 150° |
| 2026-04-26 07:22 | 35.60665 | 120.70000 | 22759 ft | 436 kts | 151° |
| 2026-04-26 07:22 | 35.58038 | 120.71789 | 23150 ft | 438 kts | 151° |
| 2026-04-26 07:22 | 35.55354 | 120.73603 | 23532 ft | 441 kts | 151° |
| 2026-04-26 07:23 | 35.52645 | 120.75429 | 23920 ft | 444 kts | 151° |
| 2026-04-26 07:23 | 35.49930 | 120.77256 | 24283 ft | 446 kts | 151° |
| 2026-04-26 07:23 | 35.47176 | 120.79050 | 24638 ft | 448 kts | 155° |
| 2026-04-26 07:23 | 35.44340 | 120.80572 | 24974 ft | 451 kts | 158° |
| 2026-04-26 07:24 | 35.41403 | 120.81975 | 25314 ft | 453 kts | 159° |
| 2026-04-26 07:24 | 35.38448 | 120.83349 | 25638 ft | 455 kts | 159° |
| 2026-04-26 07:24 | 35.35479 | 120.84748 | 25951 ft | 457 kts | 159° |
| 2026-04-26 07:24 | 35.32515 | 120.86176 | 26255 ft | 459 kts | 158° |
| 2026-04-26 07:25 | 35.29560 | 120.87623 | 26552 ft | 461 kts | 158° |
| 2026-04-26 07:25 | 35.26569 | 120.89100 | 26838 ft | 463 kts | 158° |
| 2026-04-26 07:25 | 35.23570 | 120.90585 | 27119 ft | 465 kts | 158° |
| 2026-04-26 07:25 | 35.20557 | 120.92076 | 27389 ft | 467 kts | 158° |
| 2026-04-26 07:26 | 35.17531 | 120.93568 | 27653 ft | 469 kts | 158° |
| 2026-04-26 07:26 | 35.14499 | 120.95063 | 27916 ft | 471 kts | 158° |
| 2026-04-26 07:26 | 35.11483 | 120.96556 | 28154 ft | 473 kts | 158° |
| 2026-04-26 07:26 | 35.08434 | 120.98071 | 28487 ft | 472 kts | 158° |
| 2026-04-26 07:27 | 35.05397 | 120.99581 | 28872 ft | 471 kts | 158° |
| 2026-04-26 07:27 | 35.02353 | 121.01094 | 29255 ft | 469 kts | 158° |
| 2026-04-26 07:27 | 34.99321 | 121.02599 | 29589 ft | 469 kts | 158° |
| 2026-04-26 07:27 | 34.96340 | 121.04077 | 29888 ft | 469 kts | 158° |
| 2026-04-26 07:28 | 34.93318 | 121.05574 | 30214 ft | 468 kts | 158° |
| 2026-04-26 07:28 | 34.90299 | 121.07068 | 30547 ft | 467 kts | 158° |
| 2026-04-26 07:28 | 34.87288 | 121.08556 | 30862 ft | 466 kts | 158° |
| 2026-04-26 07:28 | 34.84279 | 121.10042 | 31171 ft | 466 kts | 158° |
| 2026-04-26 07:29 | 34.81270 | 121.11527 | 31460 ft | 465 kts | 158° |
| 2026-04-26 07:29 | 34.78273 | 121.13005 | 31759 ft | 465 kts | 158° |
| 2026-04-26 07:29 | 34.75275 | 121.14482 | 32053 ft | 464 kts | 158° |
| 2026-04-26 07:29 | 34.72322 | 121.15937 | 32328 ft | 463 kts | 158° |
| 2026-04-26 07:30 | 34.69329 | 121.17409 | 32602 ft | 463 kts | 158° |
| 2026-04-26 07:30 | 34.66339 | 121.18879 | 32876 ft | 462 kts | 158° |
| 2026-04-26 07:30 | 34.63362 | 121.20341 | 33144 ft | 462 kts | 158° |
| 2026-04-26 07:30 | 34.60377 | 121.21806 | 33398 ft | 461 kts | 158° |
| 2026-04-26 07:31 | 34.57406 | 121.23264 | 33653 ft | 461 kts | 158° |
| 2026-04-26 07:31 | 34.54430 | 121.24722 | 33906 ft | 460 kts | 158° |
| 2026-04-26 07:31 | 34.51462 | 121.26176 | 34149 ft | 460 kts | 158° |
| 2026-04-26 07:31 | 34.48496 | 121.27627 | 34388 ft | 459 kts | 158° |
| 2026-04-26 07:32 | 34.45567 | 121.29059 | 34618 ft | 459 kts | 158° |
| 2026-04-26 07:32 | 34.42600 | 121.30509 | 34847 ft | 458 kts | 158° |
| 2026-04-26 07:32 | 34.39635 | 121.31956 | 35070 ft | 458 kts | 158° |
| 2026-04-26 07:32 | 34.36680 | 121.33398 | 35286 ft | 457 kts | 158° |
| 2026-04-26 07:33 | 34.33725 | 121.34838 | 35498 ft | 457 kts | 158° |
| 2026-04-26 07:33 | 34.30805 | 121.36261 | 35704 ft | 457 kts | 158° |
| 2026-04-26 07:33 | 34.27858 | 121.37696 | 35905 ft | 456 kts | 158° |
| 2026-04-26 07:33 | 34.24914 | 121.39127 | 36081 ft | 456 kts | 158° |
| 2026-04-26 07:34 | 34.21961 | 121.40562 | 36090 ft | 459 kts | 158° |
| 2026-04-26 07:34 | 34.16010 | 121.43451 | 36110 ft | 461 kts | 158° |
| 2026-04-26 07:35 | 34.10059 | 121.46336 | 36106 ft | 461 kts | 158° |
| 2026-04-26 07:35 | 34.04131 | 121.49205 | 36103 ft | 462 kts | 158° |
| 2026-04-26 07:36 | 33.98155 | 121.52094 | 36102 ft | 462 kts | 158° |
| 2026-04-26 07:36 | 33.92184 | 121.54975 | 36101 ft | 462 kts | 158° |
| 2026-04-26 07:37 | 33.86203 | 121.57858 | 36102 ft | 461 kts | 158° |
| 2026-04-26 07:37 | 33.80097 | 121.60055 | 36098 ft | 459 kts | 179° |
| 2026-04-26 07:37 | 33.76971 | 121.59671 | 36104 ft | 458 kts | 195° |
| 2026-04-26 07:38 | 33.74030 | 121.58223 | 36107 ft | 456 kts | 212° |
| 2026-04-26 07:38 | 33.71550 | 121.55866 | 36112 ft | 455 kts | 227° |
| 2026-04-26 07:38 | 33.69653 | 121.52828 | 36106 ft | 455 kts | 242° |
| 2026-04-26 07:38 | 33.68498 | 121.49300 | 36110 ft | 454 kts | 256° |
| 2026-04-26 07:39 | 33.67788 | 121.45604 | 36106 ft | 455 kts | 257° |
| 2026-04-26 07:39 | 33.66379 | 121.38187 | 36096 ft | 456 kts | 257° |
| 2026-04-26 07:40 | 33.64915 | 121.30815 | 36100 ft | 457 kts | 256° |
| 2026-04-26 07:40 | 33.63422 | 121.23378 | 36102 ft | 458 kts | 256° |
| 2026-04-26 07:41 | 33.61923 | 121.15928 | 36101 ft | 458 kts | 256° |
| 2026-04-26 07:41 | 33.60434 | 121.08536 | 36100 ft | 459 kts | 256° |
| 2026-04-26 07:42 | 33.58929 | 121.01083 | 36101 ft | 458 kts | 256° |
| 2026-04-26 07:42 | 33.57422 | 120.93648 | 36100 ft | 458 kts | 256° |
| 2026-04-26 07:43 | 33.55919 | 120.86259 | 36102 ft | 458 kts | 256° |
| 2026-04-26 07:43 | 33.54405 | 120.78837 | 36102 ft | 458 kts | 256° |
| 2026-04-26 07:44 | 33.52885 | 120.71410 | 36102 ft | 458 kts | 256° |
| 2026-04-26 07:44 | 33.51362 | 120.63993 | 36100 ft | 457 kts | 256° |
| 2026-04-26 07:45 | 33.49844 | 120.56624 | 36102 ft | 457 kts | 256° |
| 2026-04-26 07:45 | 33.48324 | 120.49268 | 36101 ft | 457 kts | 256° |
| 2026-04-26 07:46 | 33.46789 | 120.41867 | 36102 ft | 457 kts | 256° |
| 2026-04-26 07:46 | 33.45253 | 120.34479 | 36102 ft | 457 kts | 256° |
| 2026-04-26 07:47 | 33.43708 | 120.27069 | 36102 ft | 457 kts | 256° |
| 2026-04-26 07:47 | 33.42013 | 120.19794 | 36093 ft | 457 kts | 248° |
| 2026-04-26 07:48 | 33.39101 | 120.13035 | 36101 ft | 457 kts | 241° |
| 2026-04-26 07:48 | 33.35986 | 120.06390 | 36103 ft | 457 kts | 241° |
| 2026-04-26 07:49 | 33.32900 | 119.99740 | 36101 ft | 457 kts | 241° |
| 2026-04-26 07:49 | 33.29858 | 119.93116 | 36102 ft | 457 kts | 241° |
| 2026-04-26 07:50 | 33.25286 | 119.83139 | 36102 ft | 457 kts | 241° |
| 2026-04-26 07:50 | 33.22226 | 119.76479 | 36102 ft | 457 kts | 241° |
| 2026-04-26 07:51 | 33.19157 | 119.69814 | 36101 ft | 457 kts | 241° |
| 2026-04-26 07:51 | 33.16084 | 119.63153 | 36102 ft | 457 kts | 241° |
| 2026-04-26 07:52 | 33.13010 | 119.56505 | 36100 ft | 457 kts | 241° |
| 2026-04-26 07:52 | 33.09945 | 119.49886 | 36102 ft | 457 kts | 241° |
| 2026-04-26 07:53 | 33.06864 | 119.43244 | 36102 ft | 457 kts | 241° |
| 2026-04-26 07:53 | 33.03793 | 119.36638 | 36099 ft | 457 kts | 241° |
| 2026-04-26 07:54 | 33.00704 | 119.30002 | 36104 ft | 457 kts | 241° |
| 2026-04-26 07:54 | 32.97613 | 119.23373 | 36100 ft | 457 kts | 241° |
| 2026-04-26 07:55 | 32.94516 | 119.16747 | 36101 ft | 457 kts | 241° |
| 2026-04-26 07:55 | 32.91436 | 119.10115 | 36101 ft | 457 kts | 241° |
| 2026-04-26 07:56 | 32.88388 | 119.03519 | 36101 ft | 457 kts | 241° |
| 2026-04-26 07:56 | 32.85312 | 118.96888 | 36102 ft | 457 kts | 241° |
| 2026-04-26 07:57 | 32.82249 | 118.90241 | 36101 ft | 457 kts | 242° |
| 2026-04-26 07:57 | 32.79203 | 118.83592 | 36102 ft | 457 kts | 242° |
| 2026-04-26 07:58 | 32.76171 | 118.76990 | 36102 ft | 457 kts | 241° |
| 2026-04-26 07:58 | 32.73111 | 118.70344 | 36102 ft | 457 kts | 241° |
| 2026-04-26 07:59 | 32.70066 | 118.63746 | 36101 ft | 457 kts | 241° |
| 2026-04-26 07:59 | 32.68319 | 118.60594 | 36081 ft | 457 kts | 227° |
| 2026-04-26 07:59 | 32.65907 | 118.58156 | 36113 ft | 456 kts | 212° |
| 2026-04-26 08:00 | 32.63038 | 118.56557 | 36097 ft | 456 kts | 195° |
| 2026-04-26 08:00 | 32.59937 | 118.55759 | 36119 ft | 456 kts | 191° |
| 2026-04-26 08:00 | 32.53736 | 118.54315 | 36101 ft | 457 kts | 191° |
| 2026-04-26 08:01 | 32.47388 | 118.53854 | 36102 ft | 458 kts | 174° |
| 2026-04-26 08:01 | 32.41088 | 118.55188 | 36100 ft | 459 kts | 169° |
| 2026-04-26 08:02 | 32.34813 | 118.56689 | 36102 ft | 460 kts | 169° |
| 2026-04-26 08:02 | 32.28545 | 118.58126 | 36100 ft | 460 kts | 169° |
| 2026-04-26 08:03 | 32.23301 | 118.59296 | 36101 ft | 460 kts | 169° |
| 2026-04-26 08:03 | 32.15970 | 118.60922 | 36102 ft | 461 kts | 169° |
| 2026-04-26 08:04 | 32.10730 | 118.62084 | 36099 ft | 461 kts | 169° |
| 2026-04-26 08:04 | 32.04433 | 118.63481 | 36103 ft | 460 kts | 169° |
| 2026-04-26 08:05 | 31.98090 | 118.64169 | 36099 ft | 458 kts | 191° |
| 2026-04-26 08:05 | 31.95064 | 118.63036 | 36101 ft | 457 kts | 207° |
| 2026-04-26 08:05 | 31.91685 | 118.60121 | 36113 ft | 456 kts | 227° |
| 2026-04-26 08:06 | 31.90330 | 118.58170 | 36089 ft | 455 kts | 238° |
| 2026-04-26 08:06 | 31.88877 | 118.54865 | 36122 ft | 454 kts | 246° |
| 2026-04-26 08:06 | 31.86360 | 118.48074 | 36104 ft | 456 kts | 246° |
| 2026-04-26 08:07 | 31.83796 | 118.41226 | 36098 ft | 457 kts | 246° |
| 2026-04-26 08:07 | 31.81167 | 118.34412 | 36101 ft | 458 kts | 245° |
| 2026-04-26 08:08 | 31.78520 | 118.27595 | 36101 ft | 458 kts | 245° |
| 2026-04-26 08:08 | 31.75868 | 118.20817 | 36101 ft | 458 kts | 245° |
| 2026-04-26 08:09 | 31.73199 | 118.14002 | 36101 ft | 458 kts | 245° |
| 2026-04-26 08:09 | 31.70974 | 118.06996 | 36105 ft | 458 kts | 256° |
| 2026-04-26 08:10 | 31.69527 | 117.99745 | 36098 ft | 458 kts | 257° |
| 2026-04-26 08:10 | 31.68089 | 117.92458 | 36102 ft | 458 kts | 257° |
| 2026-04-26 08:11 | 31.66599 | 117.85168 | 36098 ft | 458 kts | 256° |
| 2026-04-26 08:11 | 31.65089 | 117.77898 | 36100 ft | 458 kts | 256° |
| 2026-04-26 08:12 | 31.63577 | 117.70640 | 36099 ft | 458 kts | 256° |
| 2026-04-26 08:12 | 31.62072 | 117.63423 | 36102 ft | 457 kts | 256° |
| 2026-04-26 08:13 | 31.60562 | 117.56170 | 36102 ft | 457 kts | 257° |
| 2026-04-26 08:13 | 31.59251 | 117.48851 | 36103 ft | 457 kts | 259° |
| 2026-04-26 08:14 | 31.58625 | 117.45186 | 36099 ft | 457 kts | 258° |